BKPR/PRN METAR and TAF weather

Enter ICAO airport designator
Station Type Date Time Source
BKPR METAR 2021/05/14 00:00 UTC NOAA

BKPR 140000Z VRB03KT 9999 SCT080 10/05 Q1010 NOSIG


Station Type Date Time Source
BKPR Decoded METAR 2021/05/14 00:00 UTC NOAA

Station name not available
May 13, 2021 - 08:00 PM EDT / 2021.05.14 0000 UTC
Wind: Variable at 3 MPH (3 KT):0
Visibility: greater than 7 mile(s):0
Sky conditions: partly cloudy
Temperature: 50 F (10 C)
Dew Point: 41 F (5 C)
Relative Humidity: 71%
Pressure (altimeter): 29.83 in. Hg (1010 hPa)
ob: BKPR 140000Z VRB03KT 9999 SCT080 10/05 Q1010 NOSIG
cycle: 0

Station Type Date Time Source
BKPR TAF 2021/05/13 18:30 UTC NOAA

TAF BKPR 131730Z 1318/1418 22008KT 9999 SCT050
TEMPO 1318/1321 24018KT PROB40
TEMPO 1410/1418 24018KT 5000 -TSRA FEW030CB

Example: see airport list